createdAt,value
2022-08-12T00:00:56.546Z,100231.59
2022-08-12T00:02:04.184Z,100231.59
2022-08-12T00:03:07.023Z,100233.25
2022-08-12T00:04:14.050Z,100242.07
2022-08-12T00:05:23.311Z,100237.48
2022-08-12T00:06:32.261Z,100237.48
2022-08-12T00:07:36.714Z,100237.48
2022-08-12T00:08:40.768Z,100234.13
2022-08-12T00:09:45.796Z,100234.13
2022-08-12T00:10:51.684Z,100228.67
2022-08-12T00:11:55.797Z,100228.67
2022-08-12T00:12:59.841Z,100238.09
2022-08-12T00:14:03.986Z,100244.84
2022-08-12T00:15:08.875Z,100235.80
2022-08-12T00:16:15.163Z,100229.11
2022-08-12T00:17:23.149Z,100230.38
2022-08-12T00:18:28.622Z,100224.92
2022-08-12T00:19:33.921Z,100224.92
2022-08-12T00:20:40.402Z,100229.11
2022-08-12T00:21:46.663Z,100236.03
2022-08-12T00:22:52.967Z,100230.15
2022-08-12T00:23:57.679Z,100225.75
2022-08-12T00:25:02.836Z,100223.66
2022-08-12T00:26:23.598Z,100223.66
2022-08-12T00:27:14.340Z,100238.77
2022-08-12T00:28:18.757Z,100244.03
2022-08-12T00:29:22.885Z,100241.50
2022-08-12T00:30:27.613Z,100245.92
2022-08-12T00:31:33.164Z,100245.30
2022-08-12T00:37:00.953Z,100250.76
2022-08-12T00:38:04.190Z,100242.57
2022-08-12T00:39:08.461Z,100242.57
2022-08-12T00:40:14.339Z,100257.28
2022-08-12T00:41:19.984Z,100249.92
2022-08-12T00:42:27.168Z,100249.92
2022-08-12T00:43:32.529Z,100251.98
2022-08-12T00:44:37.081Z,100250.76
2022-08-12T00:45:44.570Z,100238.76
2022-08-12T00:46:52.825Z,100241.70
2022-08-12T00:47:57.167Z,100251.58
2022-08-12T00:49:02.095Z,100251.34
2022-08-12T00:50:07.096Z,100242.95
2022-08-12T00:51:11.322Z,100217.00
2022-08-12T00:52:16.144Z,100240.22
2022-08-12T00:53:22.153Z,100236.86
2022-08-12T00:54:26.260Z,100238.32
2022-08-12T00:55:30.670Z,100238.32
2022-08-12T00:56:35.593Z,100240.22
2022-08-12T00:57:42.662Z,100240.22
2022-08-12T00:58:48.477Z,100246.72
2022-08-12T00:59:58.157Z,100253.44
2022-08-12T01:01:10.448Z,100251.58
2022-08-12T01:02:18.667Z,100251.58
2022-08-12T01:03:23.113Z,100246.97
2022-08-12T01:04:29.676Z,100246.12
2022-08-12T01:05:37.553Z,100257.23
2022-08-12T01:06:42.929Z,100258.52
2022-08-12T01:07:48.873Z,100252.22
2022-08-12T01:08:53.592Z,100252.22
2022-08-12T01:09:57.946Z,100253.44
2022-08-12T01:11:07.482Z,100250.95
2022-08-12T01:12:13.821Z,100260.17
2022-08-12T01:13:20.739Z,100258.52
2022-08-12T01:14:25.166Z,100262.30
2022-08-12T01:15:29.727Z,100251.78
2022-08-12T01:16:34.738Z,100251.78
2022-08-12T01:17:40.727Z,100260.80
2022-08-12T01:18:45.935Z,100260.80
2022-08-12T01:19:54.664Z,100262.26
2022-08-12T01:21:04.880Z,100257.63
2022-08-12T01:22:17.073Z,100265.38
2022-08-12T01:23:26.595Z,100272.93
2022-08-12T01:24:42.297Z,100272.93
2022-08-12T01:25:56.399Z,100271.66
2022-08-12T01:26:56.625Z,100271.66
2022-08-12T01:28:02.750Z,100271.66
2022-08-12T01:29:08.164Z,100268.94
2022-08-12T01:30:15.460Z,100268.94
2022-08-12T01:31:24.607Z,100231.66
2022-08-12T01:32:31.090Z,100272.29
2022-08-12T01:33:54.683Z,100272.29
2022-08-12T01:35:04.619Z,100267.03
2022-08-12T01:36:11.450Z,100254.25
2022-08-12T01:37:18.477Z,100249.62
2022-08-12T01:38:29.854Z,100254.84
2022-08-12T01:39:33.892Z,100252.11
2022-08-12T01:40:44.993Z,100264.94
2022-08-12T01:41:53.585Z,100264.94
2022-08-12T01:42:58.644Z,100253.80
2022-08-12T01:44:04.426Z,100252.11
2022-08-12T01:45:09.348Z,100258.64
2022-08-12T01:46:31.597Z,100250.45
2022-08-12T01:47:50.526Z,100263.86
2022-08-12T01:49:15.804Z,100263.86
2022-08-12T01:50:43.212Z,100268.49
2022-08-12T01:52:15.938Z,100271.85
2022-08-12T01:53:01.180Z,100271.85
2022-08-12T01:54:09.339Z,100270.19
2022-08-12T01:55:17.682Z,100270.19
2022-08-12T01:56:27.972Z,100269.33
2022-08-12T01:57:59.517Z,100270.39
2022-08-12T01:58:50.719Z,100258.64
2022-08-12T02:00:03.564Z,100265.17
2022-08-12T02:01:11.472Z,100270.63
2022-08-12T02:02:21.405Z,100258.45
2022-08-12T02:03:50.651Z,100262.66
2022-08-12T02:05:30.394Z,100254.47
2022-08-12T02:06:54.739Z,100254.47
2022-08-12T02:08:34.595Z,100250.30
2022-08-12T02:11:26.652Z,100255.16
2022-08-12T02:12:54.656Z,100256.42
2022-08-12T02:14:21.082Z,100250.52
2022-08-12T02:17:11.452Z,100252.42
2022-08-12T02:18:36.242Z,100251.59
2022-08-12T02:19:48.852Z,100257.28
2022-08-12T02:21:07.977Z,100254.55
2022-08-12T02:22:28.687Z,100250.56
2022-08-12T02:23:35.880Z,100247.20
2022-08-12T02:24:44.419Z,100247.20
2022-08-12T02:25:50.558Z,100254.80
2022-08-12T02:26:56.794Z,100249.34
2022-08-12T02:28:01.406Z,100249.34
2022-08-12T02:29:08.124Z,100256.06
2022-08-12T02:30:16.383Z,100253.74
2022-08-12T02:31:20.874Z,100250.18
2022-08-12T02:32:25.536Z,100257.73
2022-08-12T02:33:30.657Z,100223.78
2022-08-12T02:34:37.563Z,100255.01
2022-08-12T02:35:44.876Z,100255.01
2022-08-12T02:36:51.525Z,100259.43
2022-08-12T02:37:59.699Z,100254.80
2022-08-12T02:39:04.748Z,100254.80
2022-08-12T02:40:12.045Z,100260.90
2022-08-12T02:41:20.819Z,100254.81
2022-08-12T02:42:29.513Z,100248.95
2022-08-12T02:43:46.578Z,100253.95
2022-08-12T02:44:53.241Z,100254.81
2022-08-12T02:46:08.325Z,100254.81
2022-08-12T02:47:57.118Z,100249.16
2022-08-12T02:48:22.380Z,100249.16
2022-08-12T02:49:35.105Z,100248.13
2022-08-12T02:50:42.105Z,100241.81
2022-08-12T02:51:46.137Z,100245.60
2022-08-12T02:52:51.523Z,100245.60
2022-08-12T02:54:05.271Z,100238.48
2022-08-12T02:55:11.723Z,100238.48
2022-08-12T02:56:18.306Z,100242.23
2022-08-12T02:57:23.309Z,100241.81
2022-08-12T02:58:33.287Z,100242.44
2022-08-12T02:59:35.264Z,100241.41
2022-08-12T03:00:40.702Z,100241.41
2022-08-12T03:01:48.575Z,100251.89
2022-08-12T03:02:54.732Z,100249.75
2022-08-12T03:04:03.301Z,100253.34
2022-08-12T03:05:09.123Z,100238.44
2022-08-12T03:06:19.454Z,100251.66
2022-08-12T03:07:35.750Z,100243.27
2022-08-12T03:08:42.392Z,100244.73
2022-08-12T03:10:03.717Z,100244.73
2022-08-12T03:11:01.737Z,100239.28
2022-08-12T03:12:08.984Z,100238.05
2022-08-12T03:13:17.521Z,100238.05
2022-08-12T03:14:24.278Z,100236.59
2022-08-12T03:15:28.351Z,100236.59
2022-08-12T03:16:33.562Z,100236.78
2022-08-12T03:18:25.466Z,100236.78
2022-08-12T03:19:23.386Z,100237.42
2022-08-12T03:20:28.598Z,100240.34
2022-08-12T03:21:55.386Z,100242.67
2022-08-12T03:22:46.100Z,100242.67
2022-08-12T03:23:50.764Z,100239.31
2022-08-12T03:24:58.882Z,100241.64
2022-08-12T03:26:03.623Z,100241.64
2022-08-12T03:27:10.812Z,100244.77
2022-08-12T03:28:23.722Z,100234.69
2022-08-12T03:29:24.051Z,100234.69
2022-08-12T03:30:31.706Z,100236.35
2022-08-12T03:31:35.950Z,100236.35
2022-08-12T03:32:41.991Z,100239.52
2022-08-12T03:34:00.600Z,100247.89
2022-08-12T03:34:56.601Z,100246.23
2022-08-12T03:36:02.182Z,100236.35
2022-08-12T03:37:06.910Z,100236.35
2022-08-12T03:38:11.839Z,100236.35
2022-08-12T03:39:18.417Z,100247.30
2022-08-12T03:40:23.361Z,100247.30
2022-08-12T03:41:30.344Z,100246.47
2022-08-12T03:42:38.701Z,100249.83
2022-08-12T03:43:48.520Z,100249.59
2022-08-12T03:45:20.861Z,100252.55
2022-08-12T03:46:28.451Z,100252.95
2022-08-12T03:47:43.174Z,100251.48
2022-08-12T03:48:48.819Z,100251.48
2022-08-12T03:49:54.653Z,100251.48
2022-08-12T03:51:01.779Z,100243.94
2022-08-12T03:52:06.737Z,100243.94
2022-08-12T03:53:10.980Z,100239.31
2022-08-12T03:54:15.322Z,100240.37
2022-08-12T03:55:19.655Z,100232.83
2022-08-12T03:56:26.082Z,100233.03
2022-08-12T03:57:32.783Z,100230.10
2022-08-12T03:58:38.747Z,100230.10
2022-08-12T03:59:44.350Z,100239.08
2022-08-12T04:00:50.300Z,100239.08
2022-08-12T04:01:56.335Z,100243.07
2022-08-12T04:03:01.863Z,100245.16
2022-08-12T04:04:11.443Z,100235.32
2022-08-12T04:05:15.597Z,100232.36
2022-08-12T04:06:34.706Z,100236.35
2022-08-12T04:07:58.066Z,100241.41
2022-08-12T04:08:41.562Z,100231.09
2022-08-12T04:09:46.698Z,100231.09
2022-08-12T04:10:50.926Z,100239.70
2022-08-12T04:11:55.044Z,100239.70
2022-08-12T04:13:00.595Z,100242.86
2022-08-12T04:14:13.460Z,100238.44
2022-08-12T04:15:19.817Z,100244.52
2022-08-12T04:16:25.487Z,100240.42
2022-08-12T04:17:34.635Z,100245.38
2022-08-12T04:18:38.911Z,100245.38
2022-08-12T04:19:47.002Z,100234.23
2022-08-12T04:20:53.027Z,100237.22
2022-08-12T04:22:01.734Z,100237.22
2022-08-12T04:23:06.824Z,100244.83
2022-08-12T04:24:12.901Z,100239.42
2022-08-12T04:25:17.349Z,100248.02
2022-08-12T04:26:21.877Z,100248.02
2022-08-12T04:27:25.946Z,100245.95
2022-08-12T04:28:29.971Z,100245.95
2022-08-12T04:30:30.032Z,100246.97
2022-08-12T04:30:42.781Z,100244.78
2022-08-12T04:31:48.971Z,100255.27
2022-08-12T04:32:56.038Z,100247.45
2022-08-12T04:34:02.894Z,100247.45
2022-08-12T04:35:08.715Z,100241.75
2022-08-12T04:36:14.555Z,100241.85
2022-08-12T04:37:18.765Z,100237.98
2022-08-12T04:38:25.803Z,100237.98
2022-08-12T04:39:30.370Z,100246.44
2022-08-12T04:40:35.466Z,100246.44
2022-08-12T04:41:40.653Z,100240.95
2022-08-12T04:42:46.364Z,100247.02
2022-08-12T04:44:00.528Z,100242.35
2022-08-12T04:44:57.692Z,100240.58
2022-08-12T04:46:06.621Z,100234.97
2022-08-12T04:47:15.523Z,100236.41
2022-08-12T04:48:20.446Z,100237.56
2022-08-12T04:49:27.258Z,100237.56
2022-08-12T04:50:35.897Z,100238.60
2022-08-12T04:51:38.203Z,100232.92
2022-08-12T04:52:42.807Z,100232.92
2022-08-12T04:53:47.375Z,100227.96
2022-08-12T04:54:54.089Z,100221.64
2022-08-12T04:55:58.438Z,100218.98
2022-08-12T04:57:05.635Z,100213.20
2022-08-12T04:59:47.908Z,100206.23
2022-08-12T05:00:03.227Z,100223.05
2022-08-12T05:00:45.509Z,100210.05
2022-08-12T05:01:54.014Z,100222.45
2022-08-12T05:03:04.585Z,100222.45
2022-08-12T05:04:09.130Z,100216.13
2022-08-12T05:05:20.702Z,100217.06
2022-08-12T05:06:27.212Z,100227.37
2022-08-12T05:07:31.442Z,100227.37
2022-08-12T05:08:36.080Z,100231.69
2022-08-12T05:10:00.425Z,100232.88
2022-08-12T05:10:47.885Z,100233.75
2022-08-12T05:11:54.150Z,100239.84
2022-08-12T05:13:02.287Z,100239.05
2022-08-12T05:14:09.281Z,100235.86
2022-08-12T05:15:27.634Z,100235.86
2022-08-12T05:16:29.963Z,100227.17
2022-08-12T05:17:28.142Z,100227.17
2022-08-12T05:18:38.373Z,100218.26
2022-08-12T05:19:41.876Z,100213.42
2022-08-12T05:20:49.416Z,100217.10
2022-08-12T05:21:53.454Z,100234.16
2022-08-12T05:24:04.402Z,100235.67
2022-08-12T05:24:23.311Z,100235.67
2022-08-12T05:25:34.544Z,100246.69
2022-08-12T05:26:38.715Z,100239.44
2022-08-12T05:27:55.363Z,100231.46
2022-08-12T05:28:51.560Z,100231.46
2022-08-12T05:30:05.701Z,100220.72
2022-08-12T05:31:02.873Z,100223.20
2022-08-12T05:32:09.772Z,100239.56
2022-08-12T05:33:16.144Z,100241.22
2022-08-12T05:34:23.805Z,100241.22
2022-08-12T05:35:28.076Z,100227.74
2022-08-12T05:36:35.018Z,100230.06
2022-08-12T05:37:44.401Z,100234.07
2022-08-12T05:38:47.825Z,100225.41
2022-08-12T05:39:51.868Z,100235.95
2022-08-12T05:40:56.220Z,100246.43
2022-08-12T05:42:00.472Z,100252.43
2022-08-12T05:43:06.396Z,100256.64
2022-08-12T05:44:11.766Z,100256.64
2022-08-12T05:45:15.830Z,100256.44
2022-08-12T05:46:23.950Z,100257.45
2022-08-12T05:47:40.650Z,100257.45
2022-08-12T05:48:43.455Z,100251.36
2022-08-12T05:49:47.012Z,100283.49
2022-08-12T05:50:52.649Z,100283.49
2022-08-12T05:51:56.881Z,100286.38
2022-08-12T05:53:07.155Z,100266.73
2022-08-12T05:54:12.137Z,100266.73
2022-08-12T05:55:16.561Z,100257.36
2022-08-12T05:56:26.274Z,100252.28
2022-08-12T05:57:30.338Z,100252.28
2022-08-12T05:58:34.322Z,100246.69
2022-08-12T05:59:38.525Z,100248.97
2022-08-12T06:00:46.526Z,100247.19
2022-08-12T06:02:11.787Z,100249.84
2022-08-12T06:03:00.693Z,100260.08
2022-08-12T06:04:06.881Z,100260.08
2022-08-12T06:05:13.127Z,100259.75
2022-08-12T06:06:20.221Z,100254.58
2022-08-12T06:07:59.810Z,100253.98
2022-08-12T06:08:33.691Z,100255.58
2022-08-12T06:09:39.375Z,100261.44
2022-08-12T06:10:43.757Z,100255.31
2022-08-12T06:12:04.213Z,100255.31
2022-08-12T06:12:53.586Z,100243.86
2022-08-12T06:13:57.766Z,100261.30
2022-08-12T06:15:02.879Z,100265.97
2022-08-12T06:16:08.111Z,100251.17
2022-08-12T06:17:15.703Z,100249.25
2022-08-12T06:18:29.237Z,100254.05
2022-08-12T06:20:28.088Z,100254.05
2022-08-12T06:20:45.634Z,100251.02
2022-08-12T06:21:51.223Z,100270.75
2022-08-12T06:23:04.259Z,100272.06
2022-08-12T06:24:05.233Z,100258.03
2022-08-12T06:25:17.540Z,100263.03
2022-08-12T06:26:19.236Z,100264.43
2022-08-12T06:27:23.399Z,100264.43
2022-08-12T06:28:52.548Z,100262.77
2022-08-12T06:30:08.139Z,100262.77
2022-08-12T06:31:24.315Z,100263.41
2022-08-12T06:31:55.455Z,100263.41
2022-08-12T06:33:11.641Z,100274.02
2022-08-12T06:35:23.932Z,100275.07
2022-08-12T06:35:26.297Z,100275.07
2022-08-12T06:36:21.989Z,100263.52
2022-08-12T06:37:26.339Z,100268.83
2022-08-12T06:38:31.214Z,100256.56
2022-08-12T06:39:37.573Z,100256.56
2022-08-12T06:42:04.843Z,100267.28
2022-08-12T06:43:07.906Z,100264.88
2022-08-12T06:44:07.925Z,100249.33
2022-08-12T06:45:47.438Z,100252.55
2022-08-12T06:46:32.153Z,100252.55
2022-08-12T06:49:07.528Z,100258.33
2022-08-12T06:50:13.702Z,100258.33
2022-08-12T06:51:20.837Z,100254.27
2022-08-12T06:52:36.331Z,100254.27
2022-08-12T06:53:35.809Z,100258.03
2022-08-12T06:54:49.691Z,100261.70
2022-08-12T06:58:04.459Z,100259.67
2022-08-12T06:58:30.178Z,100251.70
2022-08-12T06:59:35.872Z,100251.70
2022-08-12T07:00:43.524Z,100254.19
2022-08-12T07:01:51.216Z,100256.81
2022-08-12T07:02:58.375Z,100256.81
2022-08-12T07:04:26.379Z,100242.86
2022-08-12T07:05:10.324Z,100246.21
2022-08-12T07:06:32.844Z,100253.84
2022-08-12T07:07:29.148Z,100253.84
2022-08-12T07:08:38.818Z,100252.41
2022-08-12T07:11:15.524Z,100252.99
2022-08-12T07:12:21.297Z,100264.09
2022-08-12T07:14:02.353Z,100264.09
2022-08-12T07:14:42.871Z,100256.34
2022-08-12T07:15:45.365Z,100256.34
2022-08-12T07:16:50.934Z,100257.17
2022-08-12T07:17:56.961Z,100253.11
2022-08-12T07:19:01.109Z,100253.10
2022-08-12T07:20:08.761Z,100253.10
2022-08-12T07:21:13.472Z,100234.22
2022-08-12T07:22:19.102Z,100233.28
2022-08-12T07:23:23.294Z,100233.28
2022-08-12T07:24:27.421Z,100238.62
2022-08-12T07:25:40.576Z,100238.62
2022-08-12T07:28:04.262Z,100235.26
2022-08-12T07:29:00.171Z,100233.94
2022-08-12T07:30:05.493Z,100248.84
2022-08-12T07:31:10.324Z,100236.69
2022-08-12T07:32:16.240Z,100236.69
2022-08-12T07:33:22.919Z,100247.34
2022-08-12T07:34:33.845Z,100220.51
2022-08-12T07:35:40.895Z,100232.92
2022-08-12T07:38:15.650Z,100224.85
2022-08-12T07:39:50.763Z,100217.93
2022-08-12T07:40:48.606Z,100217.93
2022-08-12T07:41:54.201Z,100232.37
2022-08-12T07:42:58.320Z,100230.25
2022-08-12T07:44:08.103Z,100228.45
2022-08-12T07:45:13.540Z,100230.11
2022-08-12T07:46:20.705Z,100223.42
2022-08-12T07:47:26.485Z,100222.09
2022-08-12T07:48:36.320Z,100222.09
2022-08-12T07:50:04.909Z,100230.25
2022-08-12T07:50:46.318Z,100230.25
2022-08-12T07:51:50.418Z,100234.11
2022-08-12T07:52:54.506Z,100234.11
2022-08-12T07:54:03.046Z,100238.03
2022-08-12T07:55:10.352Z,100238.03
2022-08-12T07:56:15.571Z,100236.22
2022-08-12T07:57:19.797Z,100236.22
2022-08-12T07:58:27.073Z,100234.53
2022-08-12T07:59:31.202Z,100237.37
2022-08-12T08:00:40.199Z,100232.73
2022-08-12T08:01:44.324Z,100230.49
2022-08-12T08:02:48.711Z,100228.06
2022-08-12T08:03:54.164Z,100228.06
2022-08-12T08:05:05.009Z,100226.53
2022-08-12T08:06:18.897Z,100240.64
2022-08-12T08:07:27.377Z,100224.69
2022-08-12T08:08:31.155Z,100224.69
2022-08-12T08:09:36.738Z,100216.50
2022-08-12T08:10:44.877Z,100216.02
2022-08-12T08:11:53.146Z,100224.77
2022-08-12T08:12:58.898Z,100206.81
2022-08-12T08:14:04.604Z,100219.55
2022-08-12T08:15:12.182Z,100212.11
2022-08-12T08:16:16.741Z,100205.85
2022-08-12T08:17:23.500Z,100197.14
2022-08-12T08:18:27.799Z,100197.14
2022-08-12T08:19:32.023Z,100199.83
2022-08-12T08:20:43.451Z,100212.70
2022-08-12T08:21:49.052Z,100216.72
2022-08-12T08:22:57.736Z,100216.72
2022-08-12T08:24:05.398Z,100196.99
2022-08-12T08:25:36.789Z,100207.86
2022-08-12T08:27:03.216Z,100204.35
2022-08-12T08:27:26.927Z,100204.35
2022-08-12T08:28:32.595Z,100222.44
2022-08-12T08:29:39.689Z,100219.05
2022-08-12T08:30:46.410Z,100208.05
2022-08-12T08:32:00.753Z,100198.53
2022-08-12T08:33:00.171Z,100198.53
2022-08-12T08:34:49.273Z,100198.53
2022-08-12T08:35:13.114Z,100203.22
2022-08-12T08:36:23.752Z,100203.22
2022-08-12T08:37:29.802Z,100220.90
2022-08-12T08:38:35.083Z,100220.90
2022-08-12T08:39:38.952Z,100219.05
2022-08-12T08:40:45.966Z,100227.31
2022-08-12T08:42:16.789Z,100227.31
2022-08-12T08:42:55.757Z,100218.03
2022-08-12T08:43:59.887Z,100229.52
2022-08-12T08:45:07.093Z,100225.18
2022-08-12T08:46:11.695Z,100225.18
2022-08-12T08:47:15.732Z,100238.75
2022-08-12T08:48:22.010Z,100245.98
2022-08-12T08:49:26.000Z,100245.98
2022-08-12T08:50:31.857Z,100240.23
2022-08-12T08:51:39.195Z,100239.48
2022-08-12T08:52:44.418Z,100236.14
2022-08-12T08:53:52.895Z,100240.04
2022-08-12T08:54:55.941Z,100240.04
2022-08-12T08:56:04.981Z,100239.80
2022-08-12T08:57:11.904Z,100237.28
2022-08-12T08:58:17.562Z,100257.84
2022-08-12T08:59:46.832Z,100257.84
2022-08-12T09:00:49.614Z,100245.27
2022-08-12T09:01:53.741Z,100260.66
2022-08-12T09:02:59.301Z,100264.83
2022-08-12T09:05:10.074Z,100263.28
2022-08-12T09:06:01.739Z,100266.99
2022-08-12T09:06:39.755Z,100266.99
2022-08-12T09:07:51.972Z,100263.48
2022-08-12T09:08:57.684Z,100254.41
2022-08-12T09:11:10.621Z,100243.45
2022-08-12T09:12:27.608Z,100257.56
2022-08-12T09:13:29.272Z,100256.86
2022-08-12T09:14:33.909Z,100258.52
2022-08-12T09:15:39.053Z,100258.52
2022-08-12T09:16:45.029Z,100255.00
2022-08-12T09:17:55.311Z,100262.19
2022-08-12T09:19:05.117Z,100262.19
2022-08-12T09:20:09.097Z,100279.73
2022-08-12T09:21:13.555Z,100275.33
2022-08-12T09:22:21.043Z,100275.33
2022-08-12T09:23:56.950Z,100290.90
2022-08-12T09:24:32.427Z,100289.86
2022-08-12T09:25:43.584Z,100276.98
2022-08-12T09:26:59.794Z,100282.87
2022-08-12T09:28:04.275Z,100282.87
2022-08-12T09:29:12.255Z,100276.53
2022-08-12T09:30:14.128Z,100280.11
2022-08-12T09:32:05.916Z,100274.50
2022-08-12T09:32:29.430Z,100277.84
2022-08-12T09:34:29.235Z,100277.84
2022-08-12T09:34:37.974Z,100274.42
2022-08-12T09:35:43.001Z,100269.19
2022-08-12T09:36:57.565Z,100269.19
2022-08-12T09:38:00.833Z,100267.19
2022-08-12T09:40:02.082Z,100289.92
2022-08-12T09:41:01.321Z,100275.22
2022-08-12T09:42:35.179Z,100277.58
2022-08-12T09:42:36.459Z,100280.33
2022-08-12T09:43:28.806Z,100280.33
2022-08-12T09:44:39.026Z,100279.73
2022-08-12T09:46:06.582Z,100287.86
2022-08-12T09:46:49.678Z,100287.86
2022-08-12T09:48:04.117Z,100291.03
2022-08-12T09:49:13.598Z,100277.92
2022-08-12T09:50:22.682Z,100288.42
2022-08-12T09:52:34.390Z,100296.77
2022-08-12T09:53:43.384Z,100296.77
2022-08-12T09:54:50.177Z,100295.35
2022-08-12T09:56:57.407Z,100295.35
2022-08-12T09:58:46.900Z,100297.09
2022-08-12T09:58:54.763Z,100293.83
2022-08-12T10:00:12.975Z,100301.06
2022-08-12T10:00:28.986Z,100295.05
2022-08-12T10:01:35.726Z,100301.73
2022-08-12T10:02:44.867Z,100292.37
2022-08-12T10:03:55.530Z,100296.80
2022-08-12T10:06:32.003Z,100292.23
2022-08-12T10:07:40.011Z,100299.88
2022-08-12T10:08:38.929Z,100299.88
2022-08-12T10:09:58.271Z,100289.28
2022-08-12T10:10:50.769Z,100292.03
2022-08-12T10:12:11.997Z,100305.25
2022-08-12T10:13:07.550Z,100305.25
2022-08-12T10:14:13.249Z,100295.69
2022-08-12T10:16:00.634Z,100295.69
2022-08-12T10:16:26.390Z,100309.98
2022-08-12T10:17:32.094Z,100309.30
2022-08-12T10:18:51.726Z,100303.34
2022-08-12T10:19:51.874Z,100310.44
2022-08-12T10:20:57.172Z,100310.44
2022-08-12T10:22:02.417Z,100302.61
2022-08-12T10:23:07.029Z,100318.32
2022-08-12T10:24:15.489Z,100326.03
2022-08-12T10:25:21.226Z,100315.05
2022-08-12T10:26:37.425Z,100300.51
2022-08-12T10:27:39.458Z,100313.07
2022-08-12T10:28:38.391Z,100302.63
2022-08-12T10:30:40.962Z,100302.63
2022-08-12T10:30:59.396Z,100297.52
2022-08-12T10:32:22.208Z,100312.70
2022-08-12T10:33:03.094Z,100311.55
2022-08-12T10:34:26.701Z,100319.72
2022-08-12T10:35:17.561Z,100318.65
2022-08-12T10:36:36.123Z,100318.65
2022-08-12T10:38:34.106Z,100303.33
2022-08-12T10:38:41.614Z,100303.33
2022-08-12T10:40:06.210Z,100312.24
2022-08-12T10:40:49.105Z,100312.24
2022-08-12T10:41:58.310Z,100316.66
2022-08-12T10:43:02.252Z,100311.91
2022-08-12T10:44:06.467Z,100322.93
2022-08-12T10:45:14.270Z,100322.93
2022-08-12T10:46:18.705Z,100303.39
2022-08-12T10:47:26.520Z,100295.42
2022-08-12T10:48:34.318Z,100295.42
2022-08-12T10:50:02.982Z,100306.30
2022-08-12T10:50:58.533Z,100299.41
2022-08-12T10:52:34.807Z,100290.58
2022-08-12T10:53:09.102Z,100290.58
2022-08-12T10:54:13.578Z,100078.52
2022-08-12T10:55:17.708Z,100293.66
2022-08-12T10:56:23.806Z,100283.46
2022-08-12T10:58:15.746Z,100278.91
2022-08-12T10:58:37.971Z,100276.98
2022-08-12T11:00:29.503Z,100273.85
2022-08-12T11:01:25.580Z,100272.81
2022-08-12T11:04:22.847Z,100271.50
2022-08-12T11:04:24.251Z,100271.50
2022-08-12T11:04:24.690Z,100269.92
2022-08-12T11:07:05.237Z,100273.09
2022-08-12T11:07:05.821Z,100276.19
2022-08-12T11:08:34.331Z,100269.50
2022-08-12T11:08:36.295Z,100279.77
2022-08-12T11:09:41.512Z,100272.19
2022-08-12T11:10:45.770Z,100272.19
2022-08-12T11:12:35.930Z,100286.01
2022-08-12T11:13:00.377Z,100255.73
2022-08-12T11:14:03.765Z,100255.73
2022-08-12T11:15:18.581Z,100283.77
2022-08-12T11:16:22.660Z,100282.70
2022-08-12T11:17:43.319Z,100281.53
2022-08-12T11:18:30.737Z,100281.53
2022-08-12T11:19:36.760Z,100275.19
2022-08-12T11:20:43.117Z,100279.67
2022-08-12T11:21:58.031Z,100285.89
2022-08-12T11:23:03.538Z,100286.03
2022-08-12T11:24:06.988Z,100278.35
2022-08-12T11:25:12.787Z,100283.03
2022-08-12T11:26:21.658Z,100283.03
2022-08-12T11:27:34.353Z,100278.64
2022-08-12T11:28:34.015Z,100278.64
2022-08-12T11:30:05.623Z,100284.58
2022-08-12T11:30:53.684Z,100284.58
2022-08-12T11:32:02.901Z,100289.92
2022-08-12T11:33:12.218Z,100287.60
2022-08-12T11:34:51.096Z,100287.60
2022-08-12T11:35:16.300Z,100282.09
2022-08-12T11:36:22.978Z,100282.09
2022-08-12T11:37:29.664Z,100282.41
2022-08-12T11:38:33.217Z,100284.42
2022-08-12T11:40:43.800Z,100279.23
2022-08-12T11:41:49.178Z,100275.72
2022-08-12T11:42:56.075Z,100280.45
2022-08-12T11:44:36.127Z,100280.52
2022-08-12T11:45:11.977Z,100280.52
2022-08-12T11:46:19.901Z,100279.88
2022-08-12T11:47:24.036Z,100279.88
2022-08-12T11:48:28.161Z,100285.70
2022-08-12T11:49:33.944Z,100286.59
2022-08-12T11:50:42.051Z,100286.59
2022-08-12T11:51:45.648Z,100290.52
2022-08-12T11:52:56.592Z,100286.15
2022-08-12T11:54:01.402Z,100290.14
2022-08-12T11:55:04.498Z,100289.62
2022-08-12T11:56:11.283Z,100313.64
2022-08-12T11:58:10.054Z,100313.64
2022-08-12T11:59:27.529Z,100303.92
2022-08-12T12:02:01.209Z,100300.65
2022-08-12T12:02:43.825Z,100294.62
2022-08-12T12:03:50.700Z,100304.98
2022-08-12T12:04:55.203Z,100304.98
2022-08-12T12:06:00.434Z,100301.16
2022-08-12T12:07:07.340Z,100303.92
2022-08-12T12:08:37.129Z,100293.38
2022-08-12T12:09:17.956Z,100295.66
2022-08-12T12:10:24.901Z,100296.27
2022-08-12T12:11:48.642Z,100296.27
2022-08-12T12:12:37.832Z,100286.28
2022-08-12T12:14:08.298Z,100287.24
2022-08-12T12:14:55.904Z,100283.20
2022-08-12T12:16:00.593Z,100283.20
2022-08-12T12:17:04.725Z,100298.19
2022-08-12T12:18:30.707Z,100287.16
2022-08-12T12:19:30.416Z,100294.84
2022-08-12T12:20:37.736Z,100294.84
2022-08-12T12:21:47.606Z,100290.31
2022-08-12T12:22:50.833Z,100290.31
2022-08-12T12:24:00.712Z,100285.71
2022-08-12T12:25:13.214Z,100274.16
2022-08-12T12:26:18.494Z,100286.90
2022-08-12T12:27:15.825Z,100281.91
2022-08-12T12:28:36.869Z,100281.91
2022-08-12T12:30:17.688Z,100284.24
2022-08-12T12:30:32.468Z,100284.24
2022-08-12T12:32:06.977Z,100289.39
2022-08-12T12:32:44.653Z,100289.39
2022-08-12T12:33:58.345Z,100277.29
2022-08-12T12:35:14.069Z,100294.91
2022-08-12T12:36:20.822Z,100280.63
2022-08-12T12:37:27.005Z,100280.63
2022-08-12T12:38:25.256Z,100297.17
2022-08-12T12:39:29.151Z,100281.02
2022-08-12T12:40:39.643Z,100274.77
2022-08-12T12:42:43.121Z,100274.77
2022-08-12T12:42:56.840Z,100267.27
2022-08-12T12:44:03.810Z,100267.27
2022-08-12T12:44:59.972Z,100258.47
2022-08-12T12:46:04.173Z,100258.47
2022-08-12T12:47:28.621Z,100274.59
2022-08-12T12:48:18.814Z,100283.34
2022-08-12T12:49:26.103Z,100266.69
2022-08-12T12:50:35.116Z,100266.69
2022-08-12T12:52:11.203Z,100279.12
2022-08-12T12:52:42.882Z,100280.66
2022-08-12T12:54:07.902Z,100274.06
2022-08-12T12:54:54.608Z,100269.73
2022-08-12T12:55:59.806Z,100269.73
2022-08-12T12:57:05.625Z,100275.21
2022-08-12T12:58:15.695Z,100267.51
2022-08-12T12:59:34.978Z,100276.74
2022-08-12T13:00:26.707Z,100274.81
2022-08-12T13:01:31.058Z,100277.56
2022-08-12T13:02:37.037Z,100281.44
2022-08-12T13:03:48.996Z,100284.64
2022-08-12T13:04:46.994Z,100284.64
2022-08-12T13:05:53.998Z,100283.00
2022-08-12T13:06:59.644Z,100288.19
2022-08-12T13:08:35.820Z,100284.80
2022-08-12T13:09:25.578Z,100280.41
2022-08-12T13:11:44.525Z,100274.27
2022-08-12T13:12:13.346Z,100280.64